Terminal Aerodrome Forecast
Issued by NWS

Current Version | Previous Version | Text Only | Print | Product List | Glossary On
Versions: 1 2 3 4 5 6 7 8 9 10 11 12 13 14 15 16 17 18 19 20 21 22 23 24
346
FTUS42 KRAH 280520
TAFRWI
TAF
KRWI 280520Z 2806/2906 VRB04KT P6SM SCT200
      TEMPO 2808/2812 5SM BR
     FM281500 12007KT P6SM SCT040 BKN200
     FM281900 12006KT P6SM BKN040 OVC120
     FM282200 VRB04KT P6SM VCSH SCT030 OVC070
     FM290000 VRB04KT 4SM -RA BR BKN020 OVC060=

USA.gov is the U.S. government's official web portal to all federal, state and local government web resources and services.